sensor_id;sensor_type;location;lat;lon;timestamp;P1;durP1;ratioP1;P2;durP2;ratioP2
75071;SDS011;63651;55.728;38.022;2023-05-10T00:04:22;10.18;;;6.22;;
75071;SDS011;63651;55.728;38.022;2023-05-10T00:09:23;13.93;;;6.10;;
75071;SDS011;63651;55.728;38.022;2023-05-10T00:14:24;9.25;;;7.35;;
75071;SDS011;63651;55.728;38.022;2023-05-10T00:19:25;10.68;;;6.53;;
75071;SDS011;63651;55.728;38.022;2023-05-10T00:24:26;9.80;;;6.80;;
75071;SDS011;63651;55.728;38.022;2023-05-10T00:29:27;10.05;;;7.05;;
75071;SDS011;63651;55.728;38.022;2023-05-10T00:34:28;10.65;;;6.93;;
75071;SDS011;63651;55.728;38.022;2023-05-10T00:39:29;9.30;;;6.07;;
75071;SDS011;63651;55.728;38.022;2023-05-10T00:44:30;7.10;;;5.90;;
75071;SDS011;63651;55.728;38.022;2023-05-10T00:49:32;10.43;;;6.63;;
75071;SDS011;63651;55.728;38.022;2023-05-10T00:54:33;11.63;;;6.65;;
75071;SDS011;63651;55.728;38.022;2023-05-10T00:59:34;7.65;;;6.20;;
75071;SDS011;63651;55.728;38.022;2023-05-10T01:04:35;7.80;;;5.95;;
75071;SDS011;63651;55.728;38.022;2023-05-10T01:09:37;9.85;;;6.13;;
75071;SDS011;63651;55.728;38.022;2023-05-10T01:14:38;7.30;;;6.03;;
75071;SDS011;63651;55.728;38.022;2023-05-10T01:19:40;10.48;;;5.35;;
75071;SDS011;63651;55.728;38.022;2023-05-10T01:46:15;10.77;;;4.85;;
75071;SDS011;63651;55.728;38.022;2023-05-10T01:51:24;8.13;;;5.30;;
75071;SDS011;63651;55.728;38.022;2023-05-10T01:56:32;9.10;;;5.47;;
75071;SDS011;63651;55.728;38.022;2023-05-10T02:01:35;8.93;;;6.07;;
75071;SDS011;63651;55.728;38.022;2023-05-10T02:06:38;11.63;;;7.28;;
75071;SDS011;63651;55.728;38.022;2023-05-10T02:11:42;9.48;;;6.07;;
75071;SDS011;63651;55.728;38.022;2023-05-10T02:16:44;8.43;;;5.60;;
75071;SDS011;63651;55.728;38.022;2023-05-10T02:21:46;7.70;;;6.10;;
75071;SDS011;63651;55.728;38.022;2023-05-10T02:26:49;8.32;;;5.25;;
75071;SDS011;63651;55.728;38.022;2023-05-10T02:31:54;9.15;;;5.15;;
75071;SDS011;63651;55.728;38.022;2023-05-10T02:36:57;7.38;;;4.78;;
75071;SDS011;63651;55.728;38.022;2023-05-10T02:42:00;7.40;;;4.60;;
75071;SDS011;63651;55.728;38.022;2023-05-10T02:47:02;7.80;;;5.47;;
75071;SDS011;63651;55.728;38.022;2023-05-10T02:52:04;8.57;;;5.43;;
75071;SDS011;63651;55.728;38.022;2023-05-10T02:57:11;6.40;;;5.50;;
75071;SDS011;63651;55.728;38.022;2023-05-10T03:02:16;9.57;;;4.97;;
75071;SDS011;63651;55.728;38.022;2023-05-10T03:07:17;6.72;;;4.57;;
75071;SDS011;63651;55.728;38.022;2023-05-10T03:18:06;7.35;;;4.80;;
75071;SDS011;63651;55.728;38.022;2023-05-10T03:23:21;6.72;;;4.70;;
75071;SDS011;63651;55.728;38.022;2023-05-10T03:28:27;7.57;;;4.32;;
75071;SDS011;63651;55.728;38.022;2023-05-10T03:33:28;6.82;;;4.70;;
75071;SDS011;63651;55.728;38.022;2023-05-10T03:38:29;5.57;;;4.57;;
75071;SDS011;63651;55.728;38.022;2023-05-10T03:43:31;6.72;;;4.95;;
75071;SDS011;63651;55.728;38.022;2023-05-10T03:48:50;6.43;;;4.70;;
75071;SDS011;63651;55.728;38.022;2023-05-10T03:53:51;7.00;;;4.70;;
75071;SDS011;63651;55.728;38.022;2023-05-10T03:58:52;8.23;;;5.03;;
75071;SDS011;63651;55.728;38.022;2023-05-10T04:03:53;7.72;;;4.07;;
75071;SDS011;63651;55.728;38.022;2023-05-10T04:08:55;6.03;;;4.22;;
75071;SDS011;63651;55.728;38.022;2023-05-10T04:13:56;9.10;;;4.93;;
75071;SDS011;63651;55.728;38.022;2023-05-10T04:18:57;7.75;;;4.88;;
75071;SDS011;63651;55.728;38.022;2023-05-10T04:23:58;9.02;;;4.97;;
75071;SDS011;63651;55.728;38.022;2023-05-10T04:28:59;7.53;;;4.80;;
75071;SDS011;63651;55.728;38.022;2023-05-10T04:34:00;10.07;;;5.65;;
75071;SDS011;63651;55.728;38.022;2023-05-10T04:39:02;11.80;;;6.97;;
75071;SDS011;63651;55.728;38.022;2023-05-10T04:44:03;16.40;;;6.45;;
75071;SDS011;63651;55.728;38.022;2023-05-10T04:49:05;16.50;;;6.90;;
75071;SDS011;63651;55.728;38.022;2023-05-10T04:54:06;12.65;;;6.00;;
75071;SDS011;63651;55.728;38.022;2023-05-10T04:59:07;11.30;;;6.22;;
75071;SDS011;63651;55.728;38.022;2023-05-10T05:04:08;14.48;;;6.50;;
75071;SDS011;63651;55.728;38.022;2023-05-10T05:09:09;7.82;;;4.15;;
75071;SDS011;63651;55.728;38.022;2023-05-10T05:14:10;11.30;;;7.35;;
75071;SDS011;63651;55.728;38.022;2023-05-10T05:19:11;13.02;;;8.55;;
75071;SDS011;63651;55.728;38.022;2023-05-10T05:24:12;12.10;;;6.70;;
75071;SDS011;63651;55.728;38.022;2023-05-10T05:29:13;12.02;;;6.40;;
75071;SDS011;63651;55.728;38.022;2023-05-10T05:34:15;9.07;;;6.00;;
75071;SDS011;63651;55.728;38.022;2023-05-10T05:39:16;11.02;;;7.05;;
75071;SDS011;63651;55.728;38.022;2023-05-10T05:44:17;9.55;;;6.93;;
75071;SDS011;63651;55.728;38.022;2023-05-10T05:49:18;9.40;;;5.28;;
75071;SDS011;63651;55.728;38.022;2023-05-10T05:54:19;6.85;;;4.25;;
75071;SDS011;63651;55.728;38.022;2023-05-10T05:59:20;8.80;;;4.18;;
75071;SDS011;63651;55.728;38.022;2023-05-10T06:04:21;5.55;;;3.53;;
75071;SDS011;63651;55.728;38.022;2023-05-10T06:09:22;3.13;;;2.15;;
75071;SDS011;63651;55.728;38.022;2023-05-10T06:14:25;5.30;;;3.13;;
75071;SDS011;63651;55.728;38.022;2023-05-10T06:19:26;4.38;;;2.60;;
75071;SDS011;63651;55.728;38.022;2023-05-10T06:24:27;4.28;;;2.53;;
75071;SDS011;63651;55.728;38.022;2023-05-10T06:29:28;3.90;;;2.53;;
75071;SDS011;63651;55.728;38.022;2023-05-10T06:34:30;3.65;;;2.40;;
75071;SDS011;63651;55.728;38.022;2023-05-10T06:39:31;2.85;;;1.85;;
75071;SDS011;63651;55.728;38.022;2023-05-10T06:44:32;5.57;;;2.25;;
75071;SDS011;63651;55.728;38.022;2023-05-10T06:49:33;3.90;;;2.13;;
75071;SDS011;63651;55.728;38.022;2023-05-10T06:54:34;4.65;;;2.20;;
75071;SDS011;63651;55.728;38.022;2023-05-10T06:59:35;2.10;;;1.80;;
75071;SDS011;63651;55.728;38.022;2023-05-10T07:04:37;2.50;;;1.83;;
75071;SDS011;63651;55.728;38.022;2023-05-10T07:09:37;2.33;;;1.40;;
75071;SDS011;63651;55.728;38.022;2023-05-10T07:14:39;3.75;;;1.75;;
75071;SDS011;63651;55.728;38.022;2023-05-10T07:19:40;3.03;;;1.83;;
75071;SDS011;63651;55.728;38.022;2023-05-10T07:24:41;2.30;;;1.48;;
75071;SDS011;63651;55.728;38.022;2023-05-10T07:29:42;2.20;;;1.70;;
75071;SDS011;63651;55.728;38.022;2023-05-10T07:34:43;2.10;;;1.60;;
75071;SDS011;63651;55.728;38.022;2023-05-10T07:39:44;1.95;;;1.60;;
75071;SDS011;63651;55.728;38.022;2023-05-10T07:44:46;3.17;;;2.03;;
75071;SDS011;63651;55.728;38.022;2023-05-10T07:49:47;2.60;;;1.67;;
75071;SDS011;63651;55.728;38.022;2023-05-10T07:54:48;1.50;;;1.27;;
75071;SDS011;63651;55.728;38.022;2023-05-10T07:59:49;2.50;;;1.42;;
75071;SDS011;63651;55.728;38.022;2023-05-10T08:04:50;2.08;;;1.48;;
75071;SDS011;63651;55.728;38.022;2023-05-10T08:09:52;2.10;;;0.98;;
75071;SDS011;63651;55.728;38.022;2023-05-10T08:14:53;2.17;;;1.13;;
75071;SDS011;63651;55.728;38.022;2023-05-10T08:19:54;2.42;;;1.27;;
75071;SDS011;63651;55.728;38.022;2023-05-10T08:24:55;1.88;;;1.33;;
75071;SDS011;63651;55.728;38.022;2023-05-10T08:29:56;1.88;;;1.02;;
75071;SDS011;63651;55.728;38.022;2023-05-10T08:34:57;2.53;;;1.50;;
75071;SDS011;63651;55.728;38.022;2023-05-10T08:39:58;2.13;;;1.42;;
75071;SDS011;63651;55.728;38.022;2023-05-10T08:44:59;1.08;;;0.88;;
75071;SDS011;63651;55.728;38.022;2023-05-10T08:50:00;1.95;;;1.20;;
75071;SDS011;63651;55.728;38.022;2023-05-10T08:55:03;3.10;;;1.33;;
75071;SDS011;63651;55.728;38.022;2023-05-10T09:00:05;1.45;;;0.98;;
75071;SDS011;63651;55.728;38.022;2023-05-10T09:05:07;1.80;;;1.10;;
75071;SDS011;63651;55.728;38.022;2023-05-10T09:10:10;1.67;;;1.10;;
75071;SDS011;63651;55.728;38.022;2023-05-10T09:15:12;1.88;;;1.30;;
75071;SDS011;63651;55.728;38.022;2023-05-10T09:20:16;2.42;;;1.20;;
75071;SDS011;63651;55.728;38.022;2023-05-10T09:25:18;2.13;;;1.00;;
75071;SDS011;63651;55.728;38.022;2023-05-10T09:35:28;1.77;;;1.40;;
75071;SDS011;63651;55.728;38.022;2023-05-10T09:40:31;2.30;;;1.20;;
75071;SDS011;63651;55.728;38.022;2023-05-10T09:45:33;2.17;;;1.20;;
75071;SDS011;63651;55.728;38.022;2023-05-10T09:50:36;3.45;;;1.63;;
75071;SDS011;63651;55.728;38.022;2023-05-10T09:55:41;1.90;;;1.15;;
75071;SDS011;63651;55.728;38.022;2023-05-10T10:00:46;2.35;;;1.85;;
75071;SDS011;63651;55.728;38.022;2023-05-10T10:05:51;1.35;;;1.17;;
75071;SDS011;63651;55.728;38.022;2023-05-10T10:10:53;1.80;;;1.40;;
75071;SDS011;63651;55.728;38.022;2023-05-10T10:15:54;2.05;;;1.25;;
75071;SDS011;63651;55.728;38.022;2023-05-10T10:20:56;1.70;;;1.10;;
75071;SDS011;63651;55.728;38.022;2023-05-10T10:25:57;2.05;;;1.17;;
75071;SDS011;63651;55.728;38.022;2023-05-10T10:31:00;2.22;;;1.45;;
75071;SDS011;63651;55.728;38.022;2023-05-10T10:36:14;1.90;;;1.17;;
75071;SDS011;63651;55.728;38.022;2023-05-10T10:41:29;1.65;;;1.05;;
75071;SDS011;63651;55.728;38.022;2023-05-10T10:57:42;1.63;;;1.00;;
75071;SDS011;63651;55.728;38.022;2023-05-10T11:02:43;2.33;;;1.10;;
75071;SDS011;63651;55.728;38.022;2023-05-10T11:07:55;1.92;;;1.20;;
75071;SDS011;63651;55.728;38.022;2023-05-10T11:23:28;3.03;;;1.20;;
75071;SDS011;63651;55.728;38.022;2023-05-10T11:28:31;1.58;;;1.40;;
75071;SDS011;63651;55.728;38.022;2023-05-10T11:33:42;2.55;;;1.08;;
75071;SDS011;63651;55.728;38.022;2023-05-10T11:38:53;1.35;;;1.00;;
75071;SDS011;63651;55.728;38.022;2023-05-10T11:43:55;1.52;;;0.95;;
75071;SDS011;63651;55.728;38.022;2023-05-10T11:48:58;1.20;;;1.05;;
75071;SDS011;63651;55.728;38.022;2023-05-10T11:54:05;1.77;;;1.10;;
75071;SDS011;63651;55.728;38.022;2023-05-10T11:59:10;1.52;;;1.30;;
75071;SDS011;63651;55.728;38.022;2023-05-10T12:04:15;1.73;;;1.20;;
75071;SDS011;63651;55.728;38.022;2023-05-10T12:09:16;1.20;;;1.10;;
75071;SDS011;63651;55.728;38.022;2023-05-10T12:14:17;1.30;;;1.02;;
75071;SDS011;63651;55.728;38.022;2023-05-10T12:19:20;1.70;;;1.10;;
75071;SDS011;63651;55.728;38.022;2023-05-10T12:24:21;1.25;;;0.85;;
75071;SDS011;63651;55.728;38.022;2023-05-10T12:29:22;1.55;;;1.33;;
75071;SDS011;63651;55.728;38.022;2023-05-10T12:39:43;1.52;;;1.10;;
75071;SDS011;63651;55.728;38.022;2023-05-10T12:44:45;1.52;;;0.90;;
75071;SDS011;63651;55.728;38.022;2023-05-10T12:49:46;2.55;;;1.30;;
75071;SDS011;63651;55.728;38.022;2023-05-10T12:54:47;1.20;;;0.93;;
75071;SDS011;63651;55.728;38.022;2023-05-10T12:59:48;2.22;;;1.38;;
75071;SDS011;63651;55.728;38.022;2023-05-10T13:04:49;3.42;;;1.40;;
75071;SDS011;63651;55.728;38.022;2023-05-10T13:09:51;1.15;;;1.00;;
75071;SDS011;63651;55.728;38.022;2023-05-10T13:14:52;1.85;;;1.33;;
75071;SDS011;63651;55.728;38.022;2023-05-10T13:19:53;1.48;;;1.27;;
75071;SDS011;63651;55.728;38.022;2023-05-10T13:24:54;1.85;;;1.23;;
75071;SDS011;63651;55.728;38.022;2023-05-10T13:29:55;1.85;;;1.10;;
75071;SDS011;63651;55.728;38.022;2023-05-10T13:34:56;2.97;;;1.60;;
75071;SDS011;63651;55.728;38.022;2023-05-10T13:39:57;2.83;;;1.98;;
75071;SDS011;63651;55.728;38.022;2023-05-10T13:44:58;4.60;;;1.92;;
75071;SDS011;63651;55.728;38.022;2023-05-10T13:49:59;2.03;;;1.58;;
75071;SDS011;63651;55.728;38.022;2023-05-10T13:55:01;3.28;;;1.77;;
75071;SDS011;63651;55.728;38.022;2023-05-10T14:00:02;4.45;;;1.63;;
75071;SDS011;63651;55.728;38.022;2023-05-10T14:05:03;1.55;;;1.45;;
75071;SDS011;63651;55.728;38.022;2023-05-10T14:10:05;2.40;;;1.60;;
75071;SDS011;63651;55.728;38.022;2023-05-10T14:15:08;1.85;;;1.30;;
75071;SDS011;63651;55.728;38.022;2023-05-10T14:20:11;1.92;;;1.10;;
75071;SDS011;63651;55.728;38.022;2023-05-10T14:25:12;1.70;;;1.48;;
75071;SDS011;63651;55.728;38.022;2023-05-10T14:30:14;1.25;;;1.00;;
75071;SDS011;63651;55.728;38.022;2023-05-10T14:35:15;2.75;;;1.50;;
75071;SDS011;63651;55.728;38.022;2023-05-10T14:40:17;2.25;;;1.42;;
75071;SDS011;63651;55.728;38.022;2023-05-10T14:45:18;2.17;;;1.40;;
75071;SDS011;63651;55.728;38.022;2023-05-10T14:50:21;2.22;;;1.90;;
75071;SDS011;63651;55.728;38.022;2023-05-10T14:55:22;2.63;;;1.73;;
75071;SDS011;63651;55.728;38.022;2023-05-10T15:00:23;2.90;;;1.40;;
75071;SDS011;63651;55.728;38.022;2023-05-10T15:05:24;2.50;;;1.70;;
75071;SDS011;63651;55.728;38.022;2023-05-10T15:10:25;3.70;;;1.60;;
75071;SDS011;63651;55.728;38.022;2023-05-10T15:15:30;1.95;;;1.60;;
75071;SDS011;63651;55.728;38.022;2023-05-10T15:20:31;3.20;;;1.90;;
75071;SDS011;63651;55.728;38.022;2023-05-10T15:25:32;2.00;;;1.50;;
75071;SDS011;63651;55.728;38.022;2023-05-10T15:30:37;2.72;;;1.52;;
75071;SDS011;63651;55.728;38.022;2023-05-10T15:35:39;2.92;;;1.63;;
75071;SDS011;63651;55.728;38.022;2023-05-10T15:40:40;4.75;;;1.65;;
75071;SDS011;63651;55.728;38.022;2023-05-10T15:45:41;6.05;;;1.90;;
75071;SDS011;63651;55.728;38.022;2023-05-10T15:50:42;2.65;;;1.70;;
75071;SDS011;63651;55.728;38.022;2023-05-10T15:55:43;4.10;;;1.50;;
75071;SDS011;63651;55.728;38.022;2023-05-10T16:00:44;4.82;;;1.75;;
75071;SDS011;63651;55.728;38.022;2023-05-10T16:05:45;2.85;;;1.92;;
75071;SDS011;63651;55.728;38.022;2023-05-10T16:10:46;3.70;;;1.48;;
75071;SDS011;63651;55.728;38.022;2023-05-10T16:15:47;3.15;;;1.60;;
75071;SDS011;63651;55.728;38.022;2023-05-10T16:20:48;3.30;;;1.70;;
75071;SDS011;63651;55.728;38.022;2023-05-10T16:25:50;1.98;;;1.40;;
75071;SDS011;63651;55.728;38.022;2023-05-10T16:30:51;2.30;;;1.23;;
75071;SDS011;63651;55.728;38.022;2023-05-10T16:35:52;2.25;;;1.65;;
75071;SDS011;63651;55.728;38.022;2023-05-10T16:40:53;2.28;;;1.63;;
75071;SDS011;63651;55.728;38.022;2023-05-10T16:45:56;1.95;;;1.60;;
75071;SDS011;63651;55.728;38.022;2023-05-10T16:50:57;2.35;;;1.70;;
75071;SDS011;63651;55.728;38.022;2023-05-10T16:55:58;2.97;;;1.80;;
75071;SDS011;63651;55.728;38.022;2023-05-10T17:01:01;2.88;;;1.70;;
75071;SDS011;63651;55.728;38.022;2023-05-10T17:06:04;2.70;;;1.88;;
75071;SDS011;63651;55.728;38.022;2023-05-10T17:11:07;3.72;;;1.73;;
75071;SDS011;63651;55.728;38.022;2023-05-10T17:16:08;2.45;;;2.05;;
75071;SDS011;63651;55.728;38.022;2023-05-10T17:21:09;3.47;;;2.30;;
75071;SDS011;63651;55.728;38.022;2023-05-10T17:26:10;11.23;;;9.18;;
75071;SDS011;63651;55.728;38.022;2023-05-10T17:31:11;4.72;;;3.00;;
75071;SDS011;63651;55.728;38.022;2023-05-10T17:36:13;4.70;;;3.08;;
75071;SDS011;63651;55.728;38.022;2023-05-10T17:46:33;5.70;;;3.47;;
75071;SDS011;63651;55.728;38.022;2023-05-10T17:51:35;6.90;;;3.42;;
75071;SDS011;63651;55.728;38.022;2023-05-10T17:56:36;5.53;;;3.63;;
75071;SDS011;63651;55.728;38.022;2023-05-10T18:01:55;6.40;;;3.28;;
75071;SDS011;63651;55.728;38.022;2023-05-10T18:06:56;4.60;;;3.15;;
75071;SDS011;63651;55.728;38.022;2023-05-10T18:12:01;6.47;;;3.78;;
75071;SDS011;63651;55.728;38.022;2023-05-10T18:17:02;5.70;;;3.83;;
75071;SDS011;63651;55.728;38.022;2023-05-10T18:22:03;9.65;;;4.32;;
75071;SDS011;63651;55.728;38.022;2023-05-10T18:27:04;6.60;;;4.00;;
75071;SDS011;63651;55.728;38.022;2023-05-10T18:32:06;7.53;;;3.30;;
75071;SDS011;63651;55.728;38.022;2023-05-10T18:37:07;6.68;;;3.85;;
75071;SDS011;63651;55.728;38.022;2023-05-10T18:42:09;5.70;;;3.80;;
75071;SDS011;63651;55.728;38.022;2023-05-10T18:47:10;7.15;;;3.80;;
75071;SDS011;63651;55.728;38.022;2023-05-10T18:52:11;8.00;;;4.80;;
75071;SDS011;63651;55.728;38.022;2023-05-10T18:57:13;7.82;;;4.30;;
75071;SDS011;63651;55.728;38.022;2023-05-10T19:02:14;6.82;;;4.82;;
75071;SDS011;63651;55.728;38.022;2023-05-10T19:07:15;6.78;;;4.30;;
75071;SDS011;63651;55.728;38.022;2023-05-10T19:12:16;10.18;;;4.70;;
75071;SDS011;63651;55.728;38.022;2023-05-10T19:17:17;8.30;;;5.13;;
75071;SDS011;63651;55.728;38.022;2023-05-10T19:22:18;10.00;;;5.72;;
75071;SDS011;63651;55.728;38.022;2023-05-10T19:27:19;10.20;;;6.40;;
75071;SDS011;63651;55.728;38.022;2023-05-10T19:32:21;8.88;;;5.47;;
75071;SDS011;63651;55.728;38.022;2023-05-10T19:37:22;8.77;;;6.00;;
75071;SDS011;63651;55.728;38.022;2023-05-10T19:42:23;10.70;;;6.65;;
75071;SDS011;63651;55.728;38.022;2023-05-10T19:47:24;15.43;;;7.38;;
75071;SDS011;63651;55.728;38.022;2023-05-10T19:52:25;16.17;;;7.72;;
75071;SDS011;63651;55.728;38.022;2023-05-10T19:57:26;14.13;;;7.63;;
75071;SDS011;63651;55.728;38.022;2023-05-10T20:02:27;18.02;;;8.32;;
75071;SDS011;63651;55.728;38.022;2023-05-10T20:07:28;13.13;;;7.68;;
75071;SDS011;63651;55.728;38.022;2023-05-10T20:12:29;18.23;;;8.07;;
75071;SDS011;63651;55.728;38.022;2023-05-10T20:17:30;15.50;;;8.40;;
75071;SDS011;63651;55.728;38.022;2023-05-10T20:22:31;14.63;;;7.57;;
75071;SDS011;63651;55.728;38.022;2023-05-10T20:27:32;13.95;;;8.38;;
75071;SDS011;63651;55.728;38.022;2023-05-10T20:32:33;14.75;;;7.97;;
75071;SDS011;63651;55.728;38.022;2023-05-10T20:37:35;13.23;;;7.93;;
75071;SDS011;63651;55.728;38.022;2023-05-10T20:42:37;14.52;;;7.85;;
75071;SDS011;63651;55.728;38.022;2023-05-10T20:47:38;15.15;;;8.30;;
75071;SDS011;63651;55.728;38.022;2023-05-10T20:52:39;14.70;;;7.88;;
75071;SDS011;63651;55.728;38.022;2023-05-10T20:57:40;14.63;;;7.45;;
75071;SDS011;63651;55.728;38.022;2023-05-10T21:02:43;12.68;;;7.18;;
75071;SDS011;63651;55.728;38.022;2023-05-10T21:07:45;14.35;;;7.40;;
75071;SDS011;63651;55.728;38.022;2023-05-10T21:12:46;13.50;;;7.22;;
75071;SDS011;63651;55.728;38.022;2023-05-10T21:17:47;15.10;;;7.88;;
75071;SDS011;63651;55.728;38.022;2023-05-10T21:22:48;12.57;;;7.43;;
75071;SDS011;63651;55.728;38.022;2023-05-10T21:27:49;12.40;;;7.28;;
75071;SDS011;63651;55.728;38.022;2023-05-10T21:32:51;10.95;;;7.07;;
75071;SDS011;63651;55.728;38.022;2023-05-10T21:37:53;12.35;;;6.75;;
75071;SDS011;63651;55.728;38.022;2023-05-10T21:42:54;10.10;;;6.53;;
75071;SDS011;63651;55.728;38.022;2023-05-10T21:47:55;9.50;;;6.57;;
75071;SDS011;63651;55.728;38.022;2023-05-10T21:52:56;13.20;;;6.65;;
75071;SDS011;63651;55.728;38.022;2023-05-10T21:57:57;9.70;;;5.95;;
75071;SDS011;63651;55.728;38.022;2023-05-10T22:02:58;12.10;;;6.78;;
75071;SDS011;63651;55.728;38.022;2023-05-10T22:07:59;10.93;;;6.45;;
75071;SDS011;63651;55.728;38.022;2023-05-10T22:13:00;12.32;;;6.60;;
75071;SDS011;63651;55.728;38.022;2023-05-10T22:18:01;10.18;;;6.03;;
75071;SDS011;63651;55.728;38.022;2023-05-10T22:23:02;10.25;;;5.70;;
75071;SDS011;63651;55.728;38.022;2023-05-10T22:28:03;12.82;;;5.72;;
75071;SDS011;63651;55.728;38.022;2023-05-10T22:33:04;8.00;;;5.18;;
75071;SDS011;63651;55.728;38.022;2023-05-10T22:38:06;7.65;;;4.75;;
75071;SDS011;63651;55.728;38.022;2023-05-10T22:43:07;8.88;;;4.80;;
75071;SDS011;63651;55.728;38.022;2023-05-10T22:48:08;6.63;;;4.68;;
75071;SDS011;63651;55.728;38.022;2023-05-10T22:53:09;8.23;;;4.57;;
75071;SDS011;63651;55.728;38.022;2023-05-10T22:58:10;6.95;;;4.53;;
75071;SDS011;63651;55.728;38.022;2023-05-10T23:03:11;7.50;;;4.25;;
75071;SDS011;63651;55.728;38.022;2023-05-10T23:08:13;8.05;;;4.55;;
75071;SDS011;63651;55.728;38.022;2023-05-10T23:13:14;7.45;;;3.95;;
75071;SDS011;63651;55.728;38.022;2023-05-10T23:18:15;5.72;;;4.18;;
75071;SDS011;63651;55.728;38.022;2023-05-10T23:23:16;7.28;;;4.00;;
75071;SDS011;63651;55.728;38.022;2023-05-10T23:28:17;6.95;;;3.80;;
75071;SDS011;63651;55.728;38.022;2023-05-10T23:33:18;6.43;;;4.53;;
75071;SDS011;63651;55.728;38.022;2023-05-10T23:38:20;5.78;;;3.88;;
75071;SDS011;63651;55.728;38.022;2023-05-10T23:43:21;5.70;;;3.40;;
75071;SDS011;63651;55.728;38.022;2023-05-10T23:48:22;7.57;;;3.50;;
75071;SDS011;63651;55.728;38.022;2023-05-10T23:53:23;6.68;;;3.60;;
75071;SDS011;63651;55.728;38.022;2023-05-10T23:58:24;5.60;;;3.63;;
